sensor_id;sensor_type;location;lat;lon;timestamp;temperature;humidity
298;DHT22;133;49.626;9.680;2023-06-04T00:00:47;15.50;57.90
298;DHT22;133;49.626;9.680;2023-06-04T00:03:12;15.50;57.70
298;DHT22;133;49.626;9.680;2023-06-04T00:05:38;15.30;58.10
298;DHT22;133;49.626;9.680;2023-06-04T00:08:04;15.20;58.30
298;DHT22;133;49.626;9.680;2023-06-04T00:10:29;15.20;58.60
298;DHT22;133;49.626;9.680;2023-06-04T00:12:56;15.20;58.30
298;DHT22;133;49.626;9.680;2023-06-04T00:15:22;15.10;59.20
298;DHT22;133;49.626;9.680;2023-06-04T00:17:47;15.10;59.90
298;DHT22;133;49.626;9.680;2023-06-04T00:20:13;15.10;60.20
298;DHT22;133;49.626;9.680;2023-06-04T00:22:38;15.10;60.60
298;DHT22;133;49.626;9.680;2023-06-04T00:25:07;15.10;60.80
298;DHT22;133;49.626;9.680;2023-06-04T00:27:33;15.00;60.90
298;DHT22;133;49.626;9.680;2023-06-04T00:29:59;15.00;60.80
298;DHT22;133;49.626;9.680;2023-06-04T00:32:24;15.00;61.70
298;DHT22;133;49.626;9.680;2023-06-04T00:34:51;14.90;61.80
298;DHT22;133;49.626;9.680;2023-06-04T00:37:17;14.90;61.40
298;DHT22;133;49.626;9.680;2023-06-04T00:39:43;14.80;61.70
298;DHT22;133;49.626;9.680;2023-06-04T00:42:08;14.80;61.60
298;DHT22;133;49.626;9.680;2023-06-04T00:44:34;14.70;62.20
298;DHT22;133;49.626;9.680;2023-06-04T00:47:01;14.60;62.10
298;DHT22;133;49.626;9.680;2023-06-04T00:49:27;14.50;62.40
298;DHT22;133;49.626;9.680;2023-06-04T00:51:53;14.50;62.00
298;DHT22;133;49.626;9.680;2023-06-04T00:54:19;14.40;62.90
298;DHT22;133;49.626;9.680;2023-06-04T00:56:46;14.30;62.80
298;DHT22;133;49.626;9.680;2023-06-04T00:59:12;14.30;63.40
298;DHT22;133;49.626;9.680;2023-06-04T01:01:58;14.10;63.70
298;DHT22;133;49.626;9.680;2023-06-04T01:07:09;14.00;63.80
298;DHT22;133;49.626;9.680;2023-06-04T01:09:35;13.90;64.50
298;DHT22;133;49.626;9.680;2023-06-04T01:12:04;13.90;64.20
298;DHT22;133;49.626;9.680;2023-06-04T01:14:30;13.90;64.50
298;DHT22;133;49.626;9.680;2023-06-04T01:22:38;13.80;64.50
298;DHT22;133;49.626;9.680;2023-06-04T01:25:42;13.80;64.70
298;DHT22;133;49.626;9.680;2023-06-04T01:28:05;13.70;65.10
298;DHT22;133;49.626;9.680;2023-06-04T01:30:36;13.60;65.50
298;DHT22;133;49.626;9.680;2023-06-04T01:33:10;13.60;65.20
298;DHT22;133;49.626;9.680;2023-06-04T01:35:39;13.60;65.10
298;DHT22;133;49.626;9.680;2023-06-04T01:38:05;13.50;65.80
298;DHT22;133;49.626;9.680;2023-06-04T01:40:31;13.50;65.90
298;DHT22;133;49.626;9.680;2023-06-04T01:42:57;13.40;65.90
298;DHT22;133;49.626;9.680;2023-06-04T01:45:24;13.40;66.70
298;DHT22;133;49.626;9.680;2023-06-04T01:47:50;13.30;66.10
298;DHT22;133;49.626;9.680;2023-06-04T01:50:16;13.30;66.60
298;DHT22;133;49.626;9.680;2023-06-04T01:52:42;13.30;66.40
298;DHT22;133;49.626;9.680;2023-06-04T01:55:13;13.30;66.50
298;DHT22;133;49.626;9.680;2023-06-04T01:57:40;13.20;66.70
298;DHT22;133;49.626;9.680;2023-06-04T02:00:07;13.10;66.60
298;DHT22;133;49.626;9.680;2023-06-04T02:02:35;13.10;67.10
298;DHT22;133;49.626;9.680;2023-06-04T02:05:01;13.10;66.50
298;DHT22;133;49.626;9.680;2023-06-04T02:07:27;13.00;66.70
298;DHT22;133;49.626;9.680;2023-06-04T02:09:52;13.00;66.30
298;DHT22;133;49.626;9.680;2023-06-04T02:12:18;12.90;66.30
298;DHT22;133;49.626;9.680;2023-06-04T02:14:44;12.90;66.70
298;DHT22;133;49.626;9.680;2023-06-04T02:17:12;12.80;66.50
298;DHT22;133;49.626;9.680;2023-06-04T02:19:44;12.80;67.40
298;DHT22;133;49.626;9.680;2023-06-04T02:22:14;12.80;67.30
298;DHT22;133;49.626;9.680;2023-06-04T02:24:40;12.80;67.90
298;DHT22;133;49.626;9.680;2023-06-04T02:27:10;12.70;67.60
298;DHT22;133;49.626;9.680;2023-06-04T02:29:36;12.70;67.50
298;DHT22;133;49.626;9.680;2023-06-04T02:32:03;12.60;67.60
298;DHT22;133;49.626;9.680;2023-06-04T02:34:29;12.60;67.80
298;DHT22;133;49.626;9.680;2023-06-04T02:36:54;12.50;68.50
298;DHT22;133;49.626;9.680;2023-06-04T02:39:20;12.50;68.90
298;DHT22;133;49.626;9.680;2023-06-04T02:41:46;12.50;68.50
298;DHT22;133;49.626;9.680;2023-06-04T02:44:12;12.40;68.40
298;DHT22;133;49.626;9.680;2023-06-04T02:46:38;12.40;69.10
298;DHT22;133;49.626;9.680;2023-06-04T02:49:04;12.30;69.50
298;DHT22;133;49.626;9.680;2023-06-04T02:51:29;12.20;69.40
298;DHT22;133;49.626;9.680;2023-06-04T02:53:55;12.20;69.40
298;DHT22;133;49.626;9.680;2023-06-04T02:56:21;12.10;70.00
298;DHT22;133;49.626;9.680;2023-06-04T02:58:51;12.10;70.00
298;DHT22;133;49.626;9.680;2023-06-04T03:01:25;12.00;69.70
298;DHT22;133;49.626;9.680;2023-06-04T03:03:52;12.00;70.10
298;DHT22;133;49.626;9.680;2023-06-04T03:06:19;12.00;69.80
298;DHT22;133;49.626;9.680;2023-06-04T03:08:49;11.90;69.80
298;DHT22;133;49.626;9.680;2023-06-04T03:11:15;11.80;70.00
298;DHT22;133;49.626;9.680;2023-06-04T03:13:41;11.80;70.40
298;DHT22;133;49.626;9.680;2023-06-04T03:16:07;11.70;70.70
298;DHT22;133;49.626;9.680;2023-06-04T03:18:41;11.70;70.30
298;DHT22;133;49.626;9.680;2023-06-04T03:21:07;11.70;70.70
298;DHT22;133;49.626;9.680;2023-06-04T03:23:34;11.60;71.10
298;DHT22;133;49.626;9.680;2023-06-04T03:26:03;11.60;71.10
298;DHT22;133;49.626;9.680;2023-06-04T03:28:30;11.50;71.40
298;DHT22;133;49.626;9.680;2023-06-04T03:30:56;11.50;71.60
298;DHT22;133;49.626;9.680;2023-06-04T03:33:22;11.50;71.80
298;DHT22;133;49.626;9.680;2023-06-04T03:35:47;11.40;71.70
298;DHT22;133;49.626;9.680;2023-06-04T03:38:14;11.40;71.40
298;DHT22;133;49.626;9.680;2023-06-04T03:40:41;11.40;71.40
298;DHT22;133;49.626;9.680;2023-06-04T03:43:06;11.40;71.90
298;DHT22;133;49.626;9.680;2023-06-04T03:45:32;11.40;72.30
298;DHT22;133;49.626;9.680;2023-06-04T03:47:58;11.40;72.40
298;DHT22;133;49.626;9.680;2023-06-04T03:50:23;11.40;72.80
298;DHT22;133;49.626;9.680;2023-06-04T03:52:49;11.30;72.60
298;DHT22;133;49.626;9.680;2023-06-04T03:55:15;11.30;72.20
298;DHT22;133;49.626;9.680;2023-06-04T03:57:41;11.20;72.40
298;DHT22;133;49.626;9.680;2023-06-04T04:00:08;11.20;72.90
298;DHT22;133;49.626;9.680;2023-06-04T04:02:37;11.10;73.70
298;DHT22;133;49.626;9.680;2023-06-04T04:05:03;11.10;73.50
298;DHT22;133;49.626;9.680;2023-06-04T04:07:29;11.00;73.90
298;DHT22;133;49.626;9.680;2023-06-04T04:09:54;11.00;74.20
298;DHT22;133;49.626;9.680;2023-06-04T04:12:20;11.00;74.10
298;DHT22;133;49.626;9.680;2023-06-04T04:14:46;11.00;74.20
298;DHT22;133;49.626;9.680;2023-06-04T04:17:15;11.10;74.50
298;DHT22;133;49.626;9.680;2023-06-04T04:19:41;11.10;74.50
298;DHT22;133;49.626;9.680;2023-06-04T04:22:07;11.10;74.70
298;DHT22;133;49.626;9.680;2023-06-04T04:24:34;11.10;75.50
298;DHT22;133;49.626;9.680;2023-06-04T04:27:02;11.20;75.10
298;DHT22;133;49.626;9.680;2023-06-04T04:29:30;11.20;74.90
298;DHT22;133;49.626;9.680;2023-06-04T04:31:59;11.20;75.10
298;DHT22;133;49.626;9.680;2023-06-04T04:34:34;11.20;75.00
298;DHT22;133;49.626;9.680;2023-06-04T04:37:03;11.30;74.80
298;DHT22;133;49.626;9.680;2023-06-04T04:39:28;11.40;74.80
298;DHT22;133;49.626;9.680;2023-06-04T04:41:54;11.40;74.40
298;DHT22;133;49.626;9.680;2023-06-04T04:44:20;11.40;75.10
298;DHT22;133;49.626;9.680;2023-06-04T04:46:48;11.40;75.10
298;DHT22;133;49.626;9.680;2023-06-04T04:49:13;11.50;75.40
298;DHT22;133;49.626;9.680;2023-06-04T04:51:39;11.60;75.50
298;DHT22;133;49.626;9.680;2023-06-04T04:54:05;11.60;75.50
298;DHT22;133;49.626;9.680;2023-06-04T04:56:33;11.70;75.60
298;DHT22;133;49.626;9.680;2023-06-04T04:58:58;11.70;74.70
298;DHT22;133;49.626;9.680;2023-06-04T05:01:24;11.70;74.40
298;DHT22;133;49.626;9.680;2023-06-04T05:03:51;11.80;74.20
298;DHT22;133;49.626;9.680;2023-06-04T05:06:16;11.80;72.80
298;DHT22;133;49.626;9.680;2023-06-04T05:08:42;11.70;72.70
298;DHT22;133;49.626;9.680;2023-06-04T05:11:08;11.70;73.10
298;DHT22;133;49.626;9.680;2023-06-04T05:13:34;11.70;73.20
298;DHT22;133;49.626;9.680;2023-06-04T05:16:00;11.70;73.10
298;DHT22;133;49.626;9.680;2023-06-04T05:18:34;11.80;73.00
298;DHT22;133;49.626;9.680;2023-06-04T05:21:00;11.80;72.30
298;DHT22;133;49.626;9.680;2023-06-04T05:23:28;11.80;72.20
298;DHT22;133;49.626;9.680;2023-06-04T05:25:55;11.80;72.20
298;DHT22;133;49.626;9.680;2023-06-04T05:28:21;11.80;72.50
298;DHT22;133;49.626;9.680;2023-06-04T05:30:50;11.70;73.30
298;DHT22;133;49.626;9.680;2023-06-04T05:33:17;11.80;72.70
298;DHT22;133;49.626;9.680;2023-06-04T05:35:49;11.90;72.50
298;DHT22;133;49.626;9.680;2023-06-04T05:38:15;12.00;72.10
298;DHT22;133;49.626;9.680;2023-06-04T05:40:44;12.10;71.30
298;DHT22;133;49.626;9.680;2023-06-04T05:43:11;12.30;71.40
298;DHT22;133;49.626;9.680;2023-06-04T05:45:36;12.40;71.80
298;DHT22;133;49.626;9.680;2023-06-04T05:48:03;12.40;69.90
298;DHT22;133;49.626;9.680;2023-06-04T05:50:28;12.40;69.90
298;DHT22;133;49.626;9.680;2023-06-04T05:52:54;12.50;68.90
298;DHT22;133;49.626;9.680;2023-06-04T05:55:20;12.60;68.20
298;DHT22;133;49.626;9.680;2023-06-04T05:57:45;12.70;67.90
298;DHT22;133;49.626;9.680;2023-06-04T06:00:11;12.80;67.70
298;DHT22;133;49.626;9.680;2023-06-04T06:02:37;12.90;67.90
298;DHT22;133;49.626;9.680;2023-06-04T06:05:04;12.90;67.90
298;DHT22;133;49.626;9.680;2023-06-04T06:07:33;12.90;67.90
298;DHT22;133;49.626;9.680;2023-06-04T06:09:59;13.00;68.10
298;DHT22;133;49.626;9.680;2023-06-04T06:12:24;13.20;67.80
298;DHT22;133;49.626;9.680;2023-06-04T06:14:50;13.30;67.90
298;DHT22;133;49.626;9.680;2023-06-04T06:17:16;13.40;68.00
298;DHT22;133;49.626;9.680;2023-06-04T06:19:42;13.40;67.80
298;DHT22;133;49.626;9.680;2023-06-04T06:22:07;13.50;67.50
298;DHT22;133;49.626;9.680;2023-06-04T06:24:33;13.70;67.00
298;DHT22;133;49.626;9.680;2023-06-04T06:26:58;13.80;66.70
298;DHT22;133;49.626;9.680;2023-06-04T06:29:24;13.70;65.90
298;DHT22;133;49.626;9.680;2023-06-04T06:31:50;13.80;66.40
298;DHT22;133;49.626;9.680;2023-06-04T06:34:16;13.90;66.70
298;DHT22;133;49.626;9.680;2023-06-04T06:36:41;14.00;66.60
298;DHT22;133;49.626;9.680;2023-06-04T06:39:08;14.10;66.40
298;DHT22;133;49.626;9.680;2023-06-04T06:41:34;14.20;66.20
298;DHT22;133;49.626;9.680;2023-06-04T06:44:00;14.30;66.50
298;DHT22;133;49.626;9.680;2023-06-04T06:46:25;14.40;66.00
298;DHT22;133;49.626;9.680;2023-06-04T06:48:51;14.40;65.70
298;DHT22;133;49.626;9.680;2023-06-04T06:51:17;14.50;65.40
298;DHT22;133;49.626;9.680;2023-06-04T06:53:43;14.50;65.10
298;DHT22;133;49.626;9.680;2023-06-04T06:56:09;14.50;65.90
298;DHT22;133;49.626;9.680;2023-06-04T06:58:34;14.70;65.60
298;DHT22;133;49.626;9.680;2023-06-04T07:01:02;14.80;65.90
298;DHT22;133;49.626;9.680;2023-06-04T07:03:28;15.00;65.20
298;DHT22;133;49.626;9.680;2023-06-04T07:05:53;15.20;63.90
298;DHT22;133;49.626;9.680;2023-06-04T07:08:19;15.40;64.00
298;DHT22;133;49.626;9.680;2023-06-04T07:10:45;15.50;62.20
298;DHT22;133;49.626;9.680;2023-06-04T07:13:11;15.60;62.00
298;DHT22;133;49.626;9.680;2023-06-04T07:15:36;15.80;62.40
298;DHT22;133;49.626;9.680;2023-06-04T07:18:02;16.00;61.80
298;DHT22;133;49.626;9.680;2023-06-04T07:20:27;16.20;61.20
298;DHT22;133;49.626;9.680;2023-06-04T07:22:53;16.30;59.60
298;DHT22;133;49.626;9.680;2023-06-04T07:25:19;16.40;60.00
298;DHT22;133;49.626;9.680;2023-06-04T07:27:45;16.60;59.70
298;DHT22;133;49.626;9.680;2023-06-04T07:30:11;16.70;60.00
298;DHT22;133;49.626;9.680;2023-06-04T07:32:36;16.90;59.70
298;DHT22;133;49.626;9.680;2023-06-04T07:35:02;17.10;59.70
298;DHT22;133;49.626;9.680;2023-06-04T07:37:28;17.30;59.20
298;DHT22;133;49.626;9.680;2023-06-04T07:39:54;17.40;58.20
298;DHT22;133;49.626;9.680;2023-06-04T07:42:19;17.60;58.80
298;DHT22;133;49.626;9.680;2023-06-04T07:44:45;17.70;58.30
298;DHT22;133;49.626;9.680;2023-06-04T07:47:10;17.80;58.00
298;DHT22;133;49.626;9.680;2023-06-04T07:49:36;17.90;57.80
298;DHT22;133;49.626;9.680;2023-06-04T07:52:02;17.90;57.70
298;DHT22;133;49.626;9.680;2023-06-04T07:54:27;18.10;58.10
298;DHT22;133;49.626;9.680;2023-06-04T07:56:53;18.20;57.60
298;DHT22;133;49.626;9.680;2023-06-04T07:59:22;18.30;58.10
298;DHT22;133;49.626;9.680;2023-06-04T08:01:49;18.40;58.10
298;DHT22;133;49.626;9.680;2023-06-04T08:04:15;18.60;57.80
298;DHT22;133;49.626;9.680;2023-06-04T08:06:41;18.60;57.00
298;DHT22;133;49.626;9.680;2023-06-04T08:09:07;18.80;57.40
298;DHT22;133;49.626;9.680;2023-06-04T08:11:35;18.90;57.10
298;DHT22;133;49.626;9.680;2023-06-04T08:14:01;19.00;57.10
298;DHT22;133;49.626;9.680;2023-06-04T08:16:26;19.10;56.70
298;DHT22;133;49.626;9.680;2023-06-04T08:18:52;19.30;57.10
298;DHT22;133;49.626;9.680;2023-06-04T08:21:26;19.40;56.60
298;DHT22;133;49.626;9.680;2023-06-04T08:23:52;19.50;57.00
298;DHT22;133;49.626;9.680;2023-06-04T08:26:18;19.60;56.00
298;DHT22;133;49.626;9.680;2023-06-04T08:28:47;19.70;56.40
298;DHT22;133;49.626;9.680;2023-06-04T08:31:12;19.90;57.20
298;DHT22;133;49.626;9.680;2023-06-04T08:33:38;20.00;56.30
298;DHT22;133;49.626;9.680;2023-06-04T08:36:04;20.10;55.90
298;DHT22;133;49.626;9.680;2023-06-04T08:38:30;20.30;55.80
298;DHT22;133;49.626;9.680;2023-06-04T08:41:01;20.50;55.80
298;DHT22;133;49.626;9.680;2023-06-04T08:43:29;20.90;54.10
298;DHT22;133;49.626;9.680;2023-06-04T08:45:59;21.20;53.10
298;DHT22;133;49.626;9.680;2023-06-04T08:48:28;21.80;52.50
298;DHT22;133;49.626;9.680;2023-06-04T08:50:57;23.10;49.90
298;DHT22;133;49.626;9.680;2023-06-04T08:53:24;25.10;47.20
298;DHT22;133;49.626;9.680;2023-06-04T08:55:50;27.20;44.50
298;DHT22;133;49.626;9.680;2023-06-04T08:58:19;29.20;40.80
298;DHT22;133;49.626;9.680;2023-06-04T09:00:45;30.70;39.50
298;DHT22;133;49.626;9.680;2023-06-04T09:03:12;32.00;38.00
298;DHT22;133;49.626;9.680;2023-06-04T09:05:39;33.50;35.60
298;DHT22;133;49.626;9.680;2023-06-04T09:08:07;34.40;34.30
298;DHT22;133;49.626;9.680;2023-06-04T09:10:34;34.90;33.60
298;DHT22;133;49.626;9.680;2023-06-04T09:13:03;35.60;33.00
298;DHT22;133;49.626;9.680;2023-06-04T09:15:32;36.70;32.00
298;DHT22;133;49.626;9.680;2023-06-04T09:17:57;36.40;31.70
298;DHT22;133;49.626;9.680;2023-06-04T09:20:24;36.90;30.30
298;DHT22;133;49.626;9.680;2023-06-04T09:22:50;37.50;30.50
298;DHT22;133;49.626;9.680;2023-06-04T09:25:23;37.10;30.30
298;DHT22;133;49.626;9.680;2023-06-04T09:27:51;37.90;30.10
298;DHT22;133;49.626;9.680;2023-06-04T09:30:17;38.60;29.30
298;DHT22;133;49.626;9.680;2023-06-04T09:32:42;38.70;29.00
298;DHT22;133;49.626;9.680;2023-06-04T09:35:15;38.70;29.00
298;DHT22;133;49.626;9.680;2023-06-04T09:37:42;38.80;28.80
298;DHT22;133;49.626;9.680;2023-06-04T09:40:08;39.10;28.60
298;DHT22;133;49.626;9.680;2023-06-04T09:42:48;38.30;28.60
298;DHT22;133;49.626;9.680;2023-06-04T09:45:33;38.70;28.80
298;DHT22;133;49.626;9.680;2023-06-04T09:48:01;37.90;28.30
298;DHT22;133;49.626;9.680;2023-06-04T09:50:30;37.40;29.20
298;DHT22;133;49.626;9.680;2023-06-04T09:52:56;37.70;29.40
298;DHT22;133;49.626;9.680;2023-06-04T09:55:22;37.90;29.20
298;DHT22;133;49.626;9.680;2023-06-04T09:57:49;37.10;29.00
298;DHT22;133;49.626;9.680;2023-06-04T10:00:23;37.00;28.50
298;DHT22;133;49.626;9.680;2023-06-04T10:02:57;36.60;29.30
298;DHT22;133;49.626;9.680;2023-06-04T10:05:24;36.20;30.00
298;DHT22;133;49.626;9.680;2023-06-04T10:07:51;36.90;29.40
298;DHT22;133;49.626;9.680;2023-06-04T10:10:20;36.70;29.60
298;DHT22;133;49.626;9.680;2023-06-04T10:12:50;36.90;29.40
298;DHT22;133;49.626;9.680;2023-06-04T10:15:19;37.70;28.80
298;DHT22;133;49.626;9.680;2023-06-04T10:17:47;38.00;28.70
298;DHT22;133;49.626;9.680;2023-06-04T10:20:14;37.50;28.60
298;DHT22;133;49.626;9.680;2023-06-04T10:22:40;37.60;28.80
298;DHT22;133;49.626;9.680;2023-06-04T10:25:06;37.70;28.60
298;DHT22;133;49.626;9.680;2023-06-04T10:27:32;37.30;28.20
298;DHT22;133;49.626;9.680;2023-06-04T10:30:01;36.20;28.40
298;DHT22;133;49.626;9.680;2023-06-04T10:32:28;35.90;29.80
298;DHT22;133;49.626;9.680;2023-06-04T10:34:54;36.50;29.30
298;DHT22;133;49.626;9.680;2023-06-04T10:37:25;36.70;28.50
298;DHT22;133;49.626;9.680;2023-06-04T10:39:52;36.60;29.20
298;DHT22;133;49.626;9.680;2023-06-04T10:42:18;36.90;28.90
298;DHT22;133;49.626;9.680;2023-06-04T10:44:49;36.90;28.70
298;DHT22;133;49.626;9.680;2023-06-04T10:47:25;35.70;30.20
298;DHT22;133;49.626;9.680;2023-06-04T10:49:52;34.50;30.20
298;DHT22;133;49.626;9.680;2023-06-04T10:52:18;34.30;30.00
298;DHT22;133;49.626;9.680;2023-06-04T10:54:45;33.20;31.90
298;DHT22;133;49.626;9.680;2023-06-04T10:57:16;34.30;30.80
298;DHT22;133;49.626;9.680;2023-06-04T10:59:53;34.40;29.30
298;DHT22;133;49.626;9.680;2023-06-04T11:02:19;34.90;28.90
298;DHT22;133;49.626;9.680;2023-06-04T11:04:44;35.10;29.90
298;DHT22;133;49.626;9.680;2023-06-04T11:07:11;35.60;30.10
298;DHT22;133;49.626;9.680;2023-06-04T11:09:50;35.30;30.10
298;DHT22;133;49.626;9.680;2023-06-04T11:12:16;34.80;30.70
298;DHT22;133;49.626;9.680;2023-06-04T11:14:53;34.70;29.80
298;DHT22;133;49.626;9.680;2023-06-04T11:17:19;35.10;28.60
298;DHT22;133;49.626;9.680;2023-06-04T11:19:45;35.60;28.70
298;DHT22;133;49.626;9.680;2023-06-04T11:22:11;35.90;29.40
298;DHT22;133;49.626;9.680;2023-06-04T11:24:37;36.10;29.00
298;DHT22;133;49.626;9.680;2023-06-04T11:27:03;36.60;28.70
298;DHT22;133;49.626;9.680;2023-06-04T11:29:29;36.40;28.60
298;DHT22;133;49.626;9.680;2023-06-04T11:31:55;36.90;28.20
298;DHT22;133;49.626;9.680;2023-06-04T11:34:25;36.80;27.60
298;DHT22;133;49.626;9.680;2023-06-04T11:36:50;36.10;27.80
298;DHT22;133;49.626;9.680;2023-06-04T11:39:18;36.00;28.50
298;DHT22;133;49.626;9.680;2023-06-04T11:41:45;36.00;28.80
298;DHT22;133;49.626;9.680;2023-06-04T11:44:11;36.40;28.90
298;DHT22;133;49.626;9.680;2023-06-04T11:46:43;35.00;29.90
298;DHT22;133;49.626;9.680;2023-06-04T11:49:16;35.30;29.10
298;DHT22;133;49.626;9.680;2023-06-04T11:51:50;35.80;29.30
298;DHT22;133;49.626;9.680;2023-06-04T11:54:16;36.10;27.60
298;DHT22;133;49.626;9.680;2023-06-04T11:56:43;36.00;27.30
298;DHT22;133;49.626;9.680;2023-06-04T11:59:13;35.70;26.70
298;DHT22;133;49.626;9.680;2023-06-04T12:01:46;35.40;29.50
298;DHT22;133;49.626;9.680;2023-06-04T12:04:18;35.40;29.80
298;DHT22;133;49.626;9.680;2023-06-04T12:06:51;35.50;27.40
298;DHT22;133;49.626;9.680;2023-06-04T12:09:22;35.70;28.90
298;DHT22;133;49.626;9.680;2023-06-04T12:11:48;34.80;29.40
298;DHT22;133;49.626;9.680;2023-06-04T12:14:18;34.60;29.50
298;DHT22;133;49.626;9.680;2023-06-04T12:16:57;35.20;30.50
298;DHT22;133;49.626;9.680;2023-06-04T12:19:24;35.50;30.00
298;DHT22;133;49.626;9.680;2023-06-04T12:22:05;35.80;29.10
298;DHT22;133;49.626;9.680;2023-06-04T12:24:33;35.40;26.90
298;DHT22;133;49.626;9.680;2023-06-04T12:27:06;35.00;28.30
298;DHT22;133;49.626;9.680;2023-06-04T12:29:35;35.80;28.90
298;DHT22;133;49.626;9.680;2023-06-04T12:32:05;36.00;27.60
298;DHT22;133;49.626;9.680;2023-06-04T12:34:34;35.50;28.80
298;DHT22;133;49.626;9.680;2023-06-04T12:37:00;35.50;27.80
298;DHT22;133;49.626;9.680;2023-06-04T12:39:25;35.60;28.20
298;DHT22;133;49.626;9.680;2023-06-04T12:41:51;34.90;29.10
298;DHT22;133;49.626;9.680;2023-06-04T12:44:17;35.40;27.80
298;DHT22;133;49.626;9.680;2023-06-04T12:46:43;35.40;27.90
298;DHT22;133;49.626;9.680;2023-06-04T12:49:08;35.20;28.60
298;DHT22;133;49.626;9.680;2023-06-04T12:51:34;35.40;27.10
298;DHT22;133;49.626;9.680;2023-06-04T12:54:00;35.20;27.90
298;DHT22;133;49.626;9.680;2023-06-04T12:56:26;35.00;29.20
298;DHT22;133;49.626;9.680;2023-06-04T12:58:51;35.50;28.10
298;DHT22;133;49.626;9.680;2023-06-04T13:01:17;35.40;26.70
298;DHT22;133;49.626;9.680;2023-06-04T13:03:43;35.80;28.30
298;DHT22;133;49.626;9.680;2023-06-04T13:06:08;36.00;26.90
298;DHT22;133;49.626;9.680;2023-06-04T13:08:35;35.80;27.80
298;DHT22;133;49.626;9.680;2023-06-04T13:11:01;35.70;28.40
298;DHT22;133;49.626;9.680;2023-06-04T13:13:27;36.20;28.40
298;DHT22;133;49.626;9.680;2023-06-04T13:15:52;36.00;28.80
298;DHT22;133;49.626;9.680;2023-06-04T13:18:18;36.00;29.30
298;DHT22;133;49.626;9.680;2023-06-04T13:20:44;36.00;28.50
298;DHT22;133;49.626;9.680;2023-06-04T13:23:09;36.00;27.90
298;DHT22;133;49.626;9.680;2023-06-04T13:25:38;35.00;29.10
298;DHT22;133;49.626;9.680;2023-06-04T13:28:04;35.30;28.70
298;DHT22;133;49.626;9.680;2023-06-04T13:30:29;35.20;29.20
298;DHT22;133;49.626;9.680;2023-06-04T13:32:55;34.90;29.20
298;DHT22;133;49.626;9.680;2023-06-04T13:35:21;34.60;29.40
298;DHT22;133;49.626;9.680;2023-06-04T13:37:47;34.50;29.40
298;DHT22;133;49.626;9.680;2023-06-04T13:40:13;34.30;30.20
298;DHT22;133;49.626;9.680;2023-06-04T13:42:39;34.20;29.40
298;DHT22;133;49.626;9.680;2023-06-04T13:45:05;33.70;30.00
298;DHT22;133;49.626;9.680;2023-06-04T13:47:31;33.50;29.80
298;DHT22;133;49.626;9.680;2023-06-04T13:49:58;33.50;32.00
298;DHT22;133;49.626;9.680;2023-06-04T13:52:23;33.40;30.80
298;DHT22;133;49.626;9.680;2023-06-04T13:54:49;33.50;30.30
298;DHT22;133;49.626;9.680;2023-06-04T13:57:14;33.60;29.80
298;DHT22;133;49.626;9.680;2023-06-04T13:59:41;33.50;30.50
298;DHT22;133;49.626;9.680;2023-06-04T14:02:07;33.30;30.20
298;DHT22;133;49.626;9.680;2023-06-04T14:04:33;33.00;29.60
298;DHT22;133;49.626;9.680;2023-06-04T14:06:58;33.00;30.60
298;DHT22;133;49.626;9.680;2023-06-04T14:09:24;33.00;29.70
298;DHT22;133;49.626;9.680;2023-06-04T14:11:50;32.60;29.70
298;DHT22;133;49.626;9.680;2023-06-04T14:14:20;32.40;32.20
298;DHT22;133;49.626;9.680;2023-06-04T14:16:47;32.40;30.70
298;DHT22;133;49.626;9.680;2023-06-04T14:19:13;32.20;30.30
298;DHT22;133;49.626;9.680;2023-06-04T14:21:38;32.20;30.00
298;DHT22;133;49.626;9.680;2023-06-04T14:24:04;32.20;30.80
298;DHT22;133;49.626;9.680;2023-06-04T14:26:40;32.20;32.00
298;DHT22;133;49.626;9.680;2023-06-04T14:29:05;32.40;30.90
298;DHT22;133;49.626;9.680;2023-06-04T14:31:31;32.40;30.60
298;DHT22;133;49.626;9.680;2023-06-04T14:33:57;32.20;31.40
298;DHT22;133;49.626;9.680;2023-06-04T14:36:23;32.30;31.20
298;DHT22;133;49.626;9.680;2023-06-04T14:38:48;32.30;30.50
298;DHT22;133;49.626;9.680;2023-06-04T14:41:15;32.30;30.40
298;DHT22;133;49.626;9.680;2023-06-04T14:43:41;32.10;29.90
298;DHT22;133;49.626;9.680;2023-06-04T14:46:06;32.10;30.70
298;DHT22;133;49.626;9.680;2023-06-04T14:48:52;32.30;30.20
298;DHT22;133;49.626;9.680;2023-06-04T14:51:20;32.50;30.00
298;DHT22;133;49.626;9.680;2023-06-04T14:53:49;32.50;29.90
298;DHT22;133;49.626;9.680;2023-06-04T14:56:16;32.70;29.60
298;DHT22;133;49.626;9.680;2023-06-04T14:58:43;32.70;28.90
298;DHT22;133;49.626;9.680;2023-06-04T15:01:09;32.70;29.50
298;DHT22;133;49.626;9.680;2023-06-04T15:03:38;32.30;29.10
298;DHT22;133;49.626;9.680;2023-06-04T15:06:04;32.10;29.70
298;DHT22;133;49.626;9.680;2023-06-04T15:08:30;32.20;30.00
298;DHT22;133;49.626;9.680;2023-06-04T15:10:55;32.20;29.70
298;DHT22;133;49.626;9.680;2023-06-04T15:13:21;32.30;30.10
298;DHT22;133;49.626;9.680;2023-06-04T15:15:47;32.10;29.30
298;DHT22;133;49.626;9.680;2023-06-04T15:18:13;32.10;29.80
298;DHT22;133;49.626;9.680;2023-06-04T15:20:38;31.70;29.20
298;DHT22;133;49.626;9.680;2023-06-04T15:23:04;31.60;30.20
298;DHT22;133;49.626;9.680;2023-06-04T15:25:30;31.70;29.90
298;DHT22;133;49.626;9.680;2023-06-04T15:27:56;31.90;30.30
298;DHT22;133;49.626;9.680;2023-06-04T15:30:21;32.00;30.10
298;DHT22;133;49.626;9.680;2023-06-04T15:32:47;32.00;30.00
298;DHT22;133;49.626;9.680;2023-06-04T15:35:13;32.00;30.20
298;DHT22;133;49.626;9.680;2023-06-04T15:37:38;31.70;29.40
298;DHT22;133;49.626;9.680;2023-06-04T15:40:05;31.70;30.80
298;DHT22;133;49.626;9.680;2023-06-04T15:42:32;31.60;30.60
298;DHT22;133;49.626;9.680;2023-06-04T15:44:58;31.60;29.90
298;DHT22;133;49.626;9.680;2023-06-04T15:47:24;31.60;30.40
298;DHT22;133;49.626;9.680;2023-06-04T15:49:50;31.70;29.60
298;DHT22;133;49.626;9.680;2023-06-04T15:52:16;31.70;29.80
298;DHT22;133;49.626;9.680;2023-06-04T15:54:41;31.70;30.00
298;DHT22;133;49.626;9.680;2023-06-04T15:57:07;31.60;30.00
298;DHT22;133;49.626;9.680;2023-06-04T15:59:33;31.70;29.60
298;DHT22;133;49.626;9.680;2023-06-04T16:01:59;31.60;30.20
298;DHT22;133;49.626;9.680;2023-06-04T16:04:25;31.60;30.20
298;DHT22;133;49.626;9.680;2023-06-04T16:06:51;31.40;30.00
298;DHT22;133;49.626;9.680;2023-06-04T16:09:16;31.20;30.40
298;DHT22;133;49.626;9.680;2023-06-04T16:11:43;31.20;30.00
298;DHT22;133;49.626;9.680;2023-06-04T16:14:12;31.10;29.80
298;DHT22;133;49.626;9.680;2023-06-04T16:16:37;31.10;30.40
298;DHT22;133;49.626;9.680;2023-06-04T16:19:03;30.90;31.10
298;DHT22;133;49.626;9.680;2023-06-04T16:21:29;30.80;30.60
298;DHT22;133;49.626;9.680;2023-06-04T16:23:55;30.80;31.10
298;DHT22;133;49.626;9.680;2023-06-04T16:26:21;30.80;31.00
298;DHT22;133;49.626;9.680;2023-06-04T16:28:47;30.60;30.90
298;DHT22;133;49.626;9.680;2023-06-04T16:31:13;30.30;31.60
298;DHT22;133;49.626;9.680;2023-06-04T16:33:38;30.10;32.30
298;DHT22;133;49.626;9.680;2023-06-04T16:36:05;30.20;31.70
298;DHT22;133;49.626;9.680;2023-06-04T16:38:30;30.10;31.80
298;DHT22;133;49.626;9.680;2023-06-04T16:40:56;30.00;31.30